Terminal Aerodrome Forecast
Issued by NWS

Home | Current Version | Previous Version | Text Only | Print | Product List | Glossary Off
Versions: 1 2 3 4 5 6 7 8 9 10 11 12 13 14 15 16 17 18 19

000
FTUS43 KICT 231134
TAFHUT
TAF
KHUT 231134Z 2312/2412 17007KT P6SM BKN250
     FM231400 19012KT P6SM FEW250
     FM231800 18012G20KT P6SM SKC
     FM232200 18012KT P6SM SKC
     FM240100 15007KT P6SM SCT250=

USA.gov is the U.S. government's official web portal to all federal, state and local government web resources and services.